createdAt,value
2024-02-17T00:00:51.652Z,8.38
2024-02-17T00:03:24.802Z,8.42
2024-02-17T00:05:52.731Z,8.42
2024-02-17T00:08:19.793Z,8.43
2024-02-17T00:10:46.906Z,8.42
2024-02-17T00:13:13.940Z,8.40
2024-02-17T00:15:41.008Z,8.43
2024-02-17T00:18:08.870Z,8.44
2024-02-17T00:20:37.286Z,8.42
2024-02-17T00:23:04.615Z,8.39
2024-02-17T00:25:31.513Z,8.38
2024-02-17T00:27:58.386Z,8.34
2024-02-17T00:30:25.492Z,8.38
2024-02-17T00:32:52.799Z,8.39
2024-02-17T00:35:19.669Z,8.40
2024-02-17T00:37:46.955Z,8.39
2024-02-17T00:40:15.117Z,8.39
2024-02-17T00:42:42.351Z,8.43
2024-02-17T00:45:10.109Z,8.38
2024-02-17T00:47:37.338Z,8.37
2024-02-17T00:50:04.615Z,8.40
2024-02-17T00:52:31.564Z,8.43
2024-02-17T00:54:58.483Z,8.42
2024-02-17T00:57:25.394Z,8.39
2024-02-17T00:59:52.263Z,8.39
2024-02-17T01:02:19.287Z,8.43
2024-02-17T01:04:46.435Z,8.39
2024-02-17T01:07:13.568Z,8.41
2024-02-17T01:09:40.702Z,8.44
2024-02-17T01:12:07.868Z,8.44
2024-02-17T01:14:35.289Z,8.42
2024-02-17T01:17:02.338Z,8.45
2024-02-17T01:19:29.412Z,8.41
2024-02-17T01:21:56.495Z,8.44
2024-02-17T01:24:23.443Z,8.44
2024-02-17T01:26:50.416Z,8.47
2024-02-17T01:29:20.384Z,8.46
2024-02-17T01:31:47.328Z,8.46
2024-02-17T01:34:14.569Z,8.44
2024-02-17T01:36:41.543Z,8.46
2024-02-17T01:39:12.208Z,8.44
2024-02-17T01:41:39.163Z,8.43
2024-02-17T01:44:08.107Z,8.46
2024-02-17T01:46:35.032Z,8.44
2024-02-17T01:49:02.036Z,8.43
2024-02-17T01:51:29.545Z,8.40
2024-02-17T01:53:57.093Z,8.40
2024-02-17T01:56:26.703Z,8.39
2024-02-17T01:58:56.917Z,8.39
2024-02-17T02:01:25.001Z,8.35
2024-02-17T02:03:52.270Z,8.32
2024-02-17T02:06:22.242Z,8.22
2024-02-17T02:08:50.085Z,8.17
2024-02-17T02:11:17.752Z,8.16
2024-02-17T02:13:44.686Z,8.04
2024-02-17T02:16:12.104Z,8.01
2024-02-17T02:18:39.212Z,7.98
2024-02-17T02:21:06.757Z,7.98
2024-02-17T02:23:36.409Z,7.89
2024-02-17T02:26:03.357Z,7.95
2024-02-17T02:28:31.984Z,7.95
2024-02-17T02:31:01.887Z,7.97
2024-02-17T02:33:29.905Z,7.99
2024-02-17T02:35:56.909Z,7.99
2024-02-17T02:38:23.751Z,7.97
2024-02-17T02:40:50.859Z,8.00
2024-02-17T02:43:18.666Z,7.99
2024-02-17T02:45:45.861Z,7.99
2024-02-17T02:48:12.975Z,7.96
2024-02-17T02:50:40.221Z,7.99
2024-02-17T02:53:09.767Z,7.99
2024-02-17T02:55:36.722Z,8.03
2024-02-17T02:58:03.935Z,8.07
2024-02-17T03:00:30.950Z,8.08
2024-02-17T03:02:57.935Z,8.10
2024-02-17T03:05:25.202Z,8.12
2024-02-17T03:07:53.029Z,8.13
2024-02-17T03:10:20.292Z,8.15
2024-02-17T03:12:47.451Z,8.15
2024-02-17T03:15:14.547Z,8.14
2024-02-17T03:17:41.625Z,8.13
2024-02-17T03:20:09.553Z,8.14
2024-02-17T03:22:36.747Z,8.16
2024-02-17T03:25:03.862Z,8.12
2024-02-17T03:27:31.066Z,8.12
2024-02-17T03:29:57.985Z,8.16
2024-02-17T03:32:25.447Z,8.18
2024-02-17T03:34:52.745Z,8.20
2024-02-17T03:37:20.692Z,8.21
2024-02-17T03:39:49.532Z,8.15
2024-02-17T03:42:16.688Z,8.18
2024-02-17T03:44:43.761Z,8.17
2024-02-17T03:47:12.587Z,8.16
2024-02-17T03:49:39.747Z,8.15
2024-02-17T03:52:07.474Z,8.17
2024-02-17T03:54:34.509Z,8.18
2024-02-17T03:57:01.871Z,8.23
2024-02-17T03:59:28.852Z,8.24
2024-02-17T04:02:00.773Z,8.26
2024-02-17T04:04:27.992Z,8.20
2024-02-17T04:06:55.066Z,8.17
2024-02-17T04:09:22.181Z,8.17
2024-02-17T04:11:49.235Z,8.11
2024-02-17T04:14:16.302Z,8.11
2024-02-17T04:16:43.352Z,8.10
2024-02-17T04:19:10.624Z,8.05
2024-02-17T04:21:37.860Z,8.01
2024-02-17T04:24:05.167Z,7.99
2024-02-17T04:26:32.073Z,8.00
2024-02-17T04:28:59.284Z,7.98
2024-02-17T04:31:26.200Z,7.97
2024-02-17T04:33:54.304Z,7.93
2024-02-17T04:36:21.315Z,7.94
2024-02-17T04:38:48.428Z,7.93
2024-02-17T04:41:15.347Z,7.92
2024-02-17T04:43:42.436Z,7.87
2024-02-17T04:46:09.687Z,7.83
2024-02-17T04:48:36.583Z,7.79
2024-02-17T04:51:04.274Z,7.77
2024-02-17T04:53:31.117Z,7.82
2024-02-17T04:55:58.031Z,7.80
2024-02-17T04:58:25.341Z,7.77
2024-02-17T05:00:52.298Z,7.79
2024-02-17T05:03:19.571Z,7.83
2024-02-17T05:05:46.719Z,7.85
2024-02-17T05:08:14.808Z,7.86
2024-02-17T05:10:41.773Z,7.84
2024-02-17T05:13:08.787Z,7.83
2024-02-17T05:15:36.755Z,7.77
2024-02-17T05:18:04.666Z,7.71
2024-02-17T05:20:31.978Z,7.74
2024-02-17T05:22:59.984Z,7.69
2024-02-17T05:25:27.085Z,7.69
2024-02-17T05:27:54.311Z,7.68
2024-02-17T05:30:21.891Z,7.70
2024-02-17T05:32:49.833Z,7.68
2024-02-17T05:35:17.260Z,7.66
2024-02-17T05:37:44.785Z,7.65
2024-02-17T05:40:13.850Z,7.66
2024-02-17T05:42:41.132Z,7.68
2024-02-17T05:45:09.108Z,7.67
2024-02-17T05:47:36.387Z,7.65
2024-02-17T05:50:05.360Z,7.69
2024-02-17T05:52:32.644Z,7.61
2024-02-17T05:54:59.635Z,7.60
2024-02-17T05:57:27.508Z,7.57
2024-02-17T05:59:54.496Z,7.56
2024-02-17T06:02:21.383Z,7.52
2024-02-17T06:04:48.507Z,7.49
2024-02-17T06:07:17.979Z,7.52
2024-02-17T06:09:45.125Z,7.48
2024-02-17T06:12:12.519Z,7.45
2024-02-17T06:14:39.477Z,7.44
2024-02-17T06:17:08.763Z,7.39
2024-02-17T06:19:54.669Z,7.32
2024-02-17T06:22:22.248Z,7.23
2024-02-17T06:24:49.389Z,7.16
2024-02-17T06:27:16.571Z,7.05
2024-02-17T06:29:44.738Z,7.00
2024-02-17T06:32:11.905Z,6.97
2024-02-17T06:34:40.019Z,6.95
2024-02-17T06:37:07.066Z,6.93
2024-02-17T06:39:35.832Z,6.89
2024-02-17T06:42:02.930Z,6.81
2024-02-17T06:44:29.918Z,6.80
2024-02-17T06:46:57.084Z,6.81
2024-02-17T06:49:24.270Z,6.82
2024-02-17T06:51:51.630Z,6.79
2024-02-17T06:54:18.864Z,6.85
2024-02-17T06:56:46.028Z,6.83
2024-02-17T06:59:12.854Z,6.83
2024-02-17T07:01:39.869Z,6.78
2024-02-17T07:04:07.161Z,6.83
2024-02-17T07:06:34.300Z,6.80
2024-02-17T07:09:01.345Z,6.82
2024-02-17T07:11:28.370Z,6.77
2024-02-17T07:13:55.862Z,6.75
2024-02-17T07:16:22.816Z,6.74
2024-02-17T07:18:51.318Z,6.80
2024-02-17T07:21:18.503Z,6.83
2024-02-17T07:23:45.651Z,6.82
2024-02-17T07:26:12.704Z,6.91
2024-02-17T07:28:39.920Z,6.92
2024-02-17T07:31:07.062Z,6.94
2024-02-17T07:33:34.575Z,6.95
2024-02-17T07:36:02.179Z,6.99
2024-02-17T07:38:28.999Z,7.07
2024-02-17T07:40:55.904Z,7.10
2024-02-17T07:43:23.133Z,7.13
2024-02-17T07:45:50.545Z,7.15
2024-02-17T07:48:18.551Z,7.17
2024-02-17T07:50:45.881Z,7.19
2024-02-17T07:53:12.940Z,7.16
2024-02-17T07:55:39.856Z,7.15
2024-02-17T07:58:09.920Z,7.10
2024-02-17T08:00:37.596Z,6.99
2024-02-17T08:03:04.658Z,6.94
2024-02-17T08:05:31.795Z,6.86
2024-02-17T08:07:58.768Z,6.91
2024-02-17T08:10:25.802Z,7.04
2024-02-17T08:12:53.153Z,7.25
2024-02-17T08:15:20.243Z,7.37
2024-02-17T08:17:47.253Z,7.42
2024-02-17T08:20:14.527Z,7.42
2024-02-17T08:22:41.543Z,7.47
2024-02-17T08:25:10.665Z,7.56
2024-02-17T08:27:38.112Z,7.56
2024-02-17T08:30:06.481Z,7.57
2024-02-17T08:32:34.187Z,7.65
2024-02-17T08:35:02.393Z,7.64
2024-02-17T08:37:29.877Z,7.63
2024-02-17T08:39:56.869Z,7.73
2024-02-17T08:42:23.944Z,7.80
2024-02-17T08:44:54.264Z,7.77
2024-02-17T08:47:22.630Z,7.69
2024-02-17T08:49:50.538Z,7.73
2024-02-17T08:52:18.035Z,7.67
2024-02-17T08:54:45.223Z,7.64
2024-02-17T08:57:12.164Z,7.59
2024-02-17T08:59:39.158Z,7.57
2024-02-17T09:02:06.090Z,7.53
2024-02-17T09:04:32.966Z,7.55
2024-02-17T09:07:01.226Z,7.62
2024-02-17T09:09:29.811Z,7.73
2024-02-17T09:11:57.089Z,7.94
2024-02-17T09:14:24.284Z,7.96
2024-02-17T09:16:52.767Z,7.98
2024-02-17T09:19:19.956Z,8.09
2024-02-17T09:21:47.347Z,8.16
2024-02-17T09:24:20.675Z,8.19
2024-02-17T09:26:48.024Z,8.12
2024-02-17T09:29:15.077Z,8.24
2024-02-17T09:31:42.789Z,8.26
2024-02-17T09:34:10.052Z,8.40
2024-02-17T09:36:37.243Z,8.53
2024-02-17T09:39:04.405Z,8.51
2024-02-17T09:41:32.149Z,8.47
2024-02-17T09:43:59.157Z,8.62
2024-02-17T09:46:29.290Z,8.78
2024-02-17T09:49:00.819Z,9.01
2024-02-17T09:51:28.075Z,9.08
2024-02-17T09:53:56.946Z,8.95
2024-02-17T09:56:26.242Z,8.93
2024-02-17T09:58:54.278Z,8.77
2024-02-17T10:01:21.658Z,8.52
2024-02-17T10:03:48.782Z,8.64
2024-02-17T10:06:17.320Z,8.87
2024-02-17T10:08:47.697Z,9.22
2024-02-17T10:11:14.870Z,9.81
2024-02-17T10:13:43.741Z,9.75
2024-02-17T10:16:15.138Z,9.54
2024-02-17T10:18:43.405Z,9.08
2024-02-17T10:21:11.417Z,8.76
2024-02-17T10:23:39.096Z,8.64
2024-02-17T10:26:07.160Z,8.58
2024-02-17T10:28:34.937Z,8.64
2024-02-17T10:31:09.849Z,8.83
2024-02-17T10:33:39.101Z,8.88
2024-02-17T10:36:08.629Z,8.91
2024-02-17T10:38:36.654Z,8.94
2024-02-17T10:41:03.642Z,9.00
2024-02-17T10:43:30.914Z,9.00
2024-02-17T10:46:01.757Z,9.15
2024-02-17T10:48:29.088Z,9.24
2024-02-17T10:50:56.194Z,9.16
2024-02-17T10:53:31.525Z,9.09
2024-02-17T10:56:00.831Z,9.44
2024-02-17T10:58:27.751Z,9.75
2024-02-17T11:00:55.094Z,9.44
2024-02-17T11:03:27.007Z,9.43
2024-02-17T11:06:00.391Z,9.63
2024-02-17T11:08:28.011Z,10.12
2024-02-17T11:10:55.091Z,10.44
2024-02-17T11:13:28.329Z,10.60
2024-02-17T11:16:06.325Z,11.06
2024-02-17T11:18:36.584Z,11.44
2024-02-17T11:21:08.020Z,11.54
2024-02-17T11:23:35.687Z,11.34
2024-02-17T11:26:03.164Z,11.28
2024-02-17T11:28:32.106Z,10.82
2024-02-17T11:31:07.898Z,10.49
2024-02-17T11:33:36.833Z,10.21
2024-02-17T11:36:11.760Z,10.27
2024-02-17T11:38:39.206Z,10.20
2024-02-17T11:41:06.407Z,10.32
2024-02-17T11:43:35.604Z,10.35
2024-02-17T11:46:04.628Z,10.48
2024-02-17T11:48:34.134Z,10.84
2024-02-17T11:51:14.357Z,11.22
2024-02-17T11:53:47.490Z,11.46
2024-02-17T11:56:15.580Z,11.49
2024-02-17T11:58:46.111Z,11.45
2024-02-17T12:01:15.056Z,11.72
2024-02-17T12:03:44.314Z,11.51
2024-02-17T12:06:12.292Z,11.75
2024-02-17T12:08:39.666Z,11.38
2024-02-17T12:11:06.977Z,11.31
2024-02-17T12:13:33.919Z,10.75
2024-02-17T12:16:09.345Z,10.52
2024-02-17T12:18:44.330Z,10.19
2024-02-17T12:21:12.948Z,10.10
2024-02-17T12:23:42.620Z,10.25
2024-02-17T12:26:17.098Z,10.04
2024-02-17T12:28:52.871Z,10.22
2024-02-17T12:31:21.325Z,10.62
2024-02-17T12:33:50.574Z,10.61
2024-02-17T12:36:19.292Z,10.84
2024-02-17T12:38:46.321Z,11.05
2024-02-17T12:41:16.504Z,11.37
2024-02-17T12:43:54.845Z,11.41
2024-02-17T12:46:25.418Z,11.58
2024-02-17T12:48:52.685Z,11.20
2024-02-17T12:51:21.731Z,11.33
2024-02-17T12:53:49.719Z,11.28
2024-02-17T12:56:20.656Z,11.50
2024-02-17T12:58:49.285Z,11.69
2024-02-17T13:01:16.151Z,11.85
2024-02-17T13:03:43.336Z,11.74
2024-02-17T13:06:10.613Z,11.78
2024-02-17T13:08:37.830Z,11.67
2024-02-17T13:11:05.564Z,12.02
2024-02-17T13:13:34.414Z,12.03
2024-02-17T13:16:02.310Z,12.00
2024-02-17T13:18:29.420Z,12.18
2024-02-17T13:20:56.666Z,12.31
2024-02-17T13:23:23.697Z,11.93
2024-02-17T13:25:51.873Z,11.32
2024-02-17T13:28:19.147Z,11.08
2024-02-17T13:30:49.091Z,11.08
2024-02-17T13:33:18.248Z,11.06
2024-02-17T13:35:45.319Z,11.30
2024-02-17T13:38:21.896Z,11.57
2024-02-17T13:40:56.469Z,11.49
2024-02-17T13:43:23.818Z,11.53
2024-02-17T13:45:51.222Z,11.31
2024-02-17T13:48:18.527Z,11.28
2024-02-17T13:50:46.679Z,11.05
2024-02-17T13:53:13.965Z,10.92
2024-02-17T13:55:43.875Z,11.01
2024-02-17T13:58:13.002Z,11.23
2024-02-17T14:00:41.359Z,11.43
2024-02-17T14:03:09.594Z,12.16
2024-02-17T14:05:36.996Z,13.56
2024-02-17T14:08:04.172Z,14.86
2024-02-17T14:10:31.300Z,15.31
2024-02-17T14:13:00.724Z,15.25
2024-02-17T14:15:28.170Z,13.90
2024-02-17T14:17:55.516Z,13.38
2024-02-17T14:20:22.548Z,14.04
2024-02-17T14:22:49.725Z,14.86
2024-02-17T14:25:17.000Z,14.93
2024-02-17T14:27:44.095Z,14.91
2024-02-17T14:30:11.800Z,14.17
2024-02-17T14:32:38.974Z,13.00
2024-02-17T14:35:07.002Z,12.68
2024-02-17T14:37:34.024Z,12.49
2024-02-17T14:40:01.043Z,12.34
2024-02-17T14:42:28.533Z,12.11
2024-02-17T14:44:55.539Z,11.88
2024-02-17T14:47:22.464Z,11.62
2024-02-17T14:49:49.508Z,11.34
2024-02-17T14:52:16.884Z,11.25
2024-02-17T14:54:45.638Z,11.27
2024-02-17T14:57:13.747Z,11.10
2024-02-17T14:59:41.305Z,10.60
2024-02-17T15:02:08.806Z,10.37
2024-02-17T15:04:36.528Z,10.33
2024-02-17T15:07:04.058Z,10.27
2024-02-17T15:09:32.018Z,10.26
2024-02-17T15:12:00.263Z,10.13
2024-02-17T15:14:29.477Z,10.01
2024-02-17T15:16:57.154Z,9.93
2024-02-17T15:19:24.423Z,9.83
2024-02-17T15:21:51.570Z,9.73
2024-02-17T15:24:19.051Z,9.72
2024-02-17T15:26:46.669Z,9.72
2024-02-17T15:29:13.800Z,9.69
2024-02-17T15:31:40.752Z,9.70
2024-02-17T15:34:09.436Z,9.71
2024-02-17T15:36:37.824Z,9.71
2024-02-17T15:39:07.163Z,9.68
2024-02-17T15:41:34.522Z,9.69
2024-02-17T15:44:01.515Z,9.65
2024-02-17T15:46:28.428Z,9.62
2024-02-17T15:48:55.777Z,9.62
2024-02-17T15:51:22.913Z,9.58
2024-02-17T15:53:49.773Z,9.56
2024-02-17T15:56:18.562Z,9.56
2024-02-17T15:58:46.577Z,9.54
2024-02-17T16:01:14.133Z,9.53
2024-02-17T16:03:41.632Z,9.62
2024-02-17T16:06:10.162Z,9.61
2024-02-17T16:08:39.872Z,9.58
2024-02-17T16:11:09.046Z,9.58
2024-02-17T16:13:44.616Z,9.50
2024-02-17T16:16:13.931Z,9.49
2024-02-17T16:18:40.987Z,9.48
2024-02-17T16:21:08.474Z,9.43
2024-02-17T16:23:36.332Z,9.36
2024-02-17T16:26:05.908Z,9.38
2024-02-17T16:28:33.605Z,9.30
2024-02-17T16:31:02.049Z,9.33
2024-02-17T16:33:33.923Z,9.21
2024-02-17T16:36:04.205Z,9.32
2024-02-17T16:38:32.019Z,9.28
2024-02-17T16:41:03.065Z,9.28
2024-02-17T16:43:32.228Z,9.25
2024-02-17T16:46:01.028Z,9.23
2024-02-17T16:48:29.442Z,9.14
2024-02-17T16:50:58.502Z,9.07
2024-02-17T16:53:25.848Z,9.04
2024-02-17T16:55:52.919Z,9.03
2024-02-17T16:58:19.789Z,8.92
2024-02-17T17:00:46.990Z,8.92
2024-02-17T17:03:13.888Z,8.89
2024-02-17T17:05:41.057Z,8.91
2024-02-17T17:08:08.582Z,8.99
2024-02-17T17:10:35.529Z,8.96
2024-02-17T17:13:02.597Z,8.94
2024-02-17T17:15:29.728Z,8.88
2024-02-17T17:17:56.707Z,8.85
2024-02-17T17:20:24.769Z,8.94
2024-02-17T17:22:51.817Z,8.92
2024-02-17T17:25:18.744Z,8.94
2024-02-17T17:27:46.084Z,8.89
2024-02-17T17:30:13.967Z,8.84
2024-02-17T17:32:42.119Z,8.80
2024-02-17T17:35:09.973Z,8.87
2024-02-17T17:37:37.639Z,8.93
2024-02-17T17:40:06.569Z,8.95
2024-02-17T17:42:33.724Z,8.86
2024-02-17T17:45:00.875Z,8.91
2024-02-17T17:47:32.182Z,8.87
2024-02-17T17:49:59.496Z,8.78
2024-02-17T17:52:26.704Z,8.75
2024-02-17T17:54:54.039Z,8.84
2024-02-17T17:57:24.370Z,8.86
2024-02-17T17:59:52.270Z,8.90
2024-02-17T18:02:20.730Z,8.87
2024-02-17T18:04:48.012Z,8.81
2024-02-17T18:07:20.255Z,8.87
2024-02-17T18:09:47.267Z,8.87
2024-02-17T18:12:14.881Z,8.86
2024-02-17T18:14:42.208Z,8.74
2024-02-17T18:17:12.698Z,8.81
2024-02-17T18:19:39.591Z,8.79
2024-02-17T18:22:07.226Z,8.86
2024-02-17T18:24:34.155Z,8.89
2024-02-17T18:27:01.055Z,8.87
2024-02-17T18:29:28.215Z,8.83
2024-02-17T18:31:56.735Z,8.76
2024-02-17T18:34:23.879Z,8.84
2024-02-17T18:36:50.965Z,8.83
2024-02-17T18:39:17.916Z,8.81
2024-02-17T18:41:47.000Z,8.80
2024-02-17T18:44:14.001Z,8.79
2024-02-17T18:46:41.245Z,8.83
2024-02-17T18:49:09.366Z,8.84
2024-02-17T18:51:39.479Z,8.78
2024-02-17T18:54:07.777Z,8.83
2024-02-17T18:56:35.512Z,8.77
2024-02-17T18:59:02.482Z,8.73
2024-02-17T19:01:29.781Z,8.68
2024-02-17T19:03:57.067Z,8.72
2024-02-17T19:06:24.204Z,8.76
2024-02-17T19:08:53.204Z,8.76
2024-02-17T19:11:23.211Z,8.76
2024-02-17T19:13:50.095Z,8.71
2024-02-17T19:16:18.387Z,8.71
2024-02-17T19:18:45.502Z,8.68
2024-02-17T19:21:12.818Z,8.70
2024-02-17T19:23:40.604Z,8.72
2024-02-17T19:26:07.854Z,8.72
2024-02-17T19:28:34.767Z,8.72
2024-02-17T19:31:06.029Z,8.72
2024-02-17T19:33:33.387Z,8.66
2024-02-17T19:36:01.115Z,8.63
2024-02-17T19:38:27.936Z,8.65
2024-02-17T19:40:54.935Z,8.69
2024-02-17T19:43:21.882Z,8.64
2024-02-17T19:45:48.899Z,8.67
2024-02-17T19:48:16.268Z,8.62
2024-02-17T19:50:43.330Z,8.61
2024-02-17T19:53:11.441Z,8.56
2024-02-17T19:55:38.363Z,8.53
2024-02-17T19:58:07.361Z,8.52
2024-02-17T20:00:34.340Z,8.60
2024-02-17T20:03:02.057Z,8.53
2024-02-17T20:05:30.168Z,8.59
2024-02-17T20:07:57.309Z,8.57
2024-02-17T20:10:25.255Z,8.55
2024-02-17T20:12:52.804Z,8.52
2024-02-17T20:15:20.115Z,8.50
2024-02-17T20:17:47.227Z,8.53
2024-02-17T20:20:18.129Z,8.58
2024-02-17T20:22:47.394Z,8.50
2024-02-17T20:25:14.382Z,8.52
2024-02-17T20:27:41.919Z,8.47
2024-02-17T20:30:09.694Z,8.45
2024-02-17T20:32:36.657Z,8.51
2024-02-17T20:35:04.410Z,8.48
2024-02-17T20:37:31.618Z,8.51
2024-02-17T20:40:01.836Z,8.47
2024-02-17T20:42:29.727Z,8.33
2024-02-17T20:44:56.979Z,8.37
2024-02-17T20:47:24.293Z,8.36
2024-02-17T20:49:51.459Z,8.40
2024-02-17T20:52:18.708Z,8.37
2024-02-17T20:54:45.777Z,8.36
2024-02-17T20:57:12.877Z,8.32
2024-02-17T20:59:39.813Z,8.36
2024-02-17T21:02:06.816Z,8.33
2024-02-17T21:04:34.160Z,8.38
2024-02-17T21:07:01.426Z,8.35
2024-02-17T21:09:28.449Z,8.44
2024-02-17T21:11:55.467Z,8.42
2024-02-17T21:14:22.320Z,8.40
2024-02-17T21:16:49.338Z,8.43
2024-02-17T21:19:16.361Z,8.43
2024-02-17T21:21:43.609Z,8.43
2024-02-17T21:24:10.824Z,8.46
2024-02-17T21:26:37.855Z,8.47
2024-02-17T21:29:04.725Z,8.49
2024-02-17T21:31:31.677Z,8.49
2024-02-17T21:33:58.667Z,8.48
2024-02-17T21:36:26.315Z,8.48
2024-02-17T21:38:53.312Z,8.54
2024-02-17T21:41:20.832Z,8.59
2024-02-17T21:43:47.716Z,8.49
2024-02-17T21:46:14.780Z,8.45
2024-02-17T21:48:42.445Z,8.50
2024-02-17T21:51:17.754Z,8.56
2024-02-17T21:53:45.738Z,8.57
2024-02-17T21:56:12.695Z,8.53
2024-02-17T21:58:39.822Z,8.58
2024-02-17T22:01:07.157Z,8.57
2024-02-17T22:03:34.567Z,8.51
2024-02-17T22:06:01.826Z,8.53
2024-02-17T22:08:29.885Z,8.55
2024-02-17T22:10:57.077Z,8.53
2024-02-17T22:13:24.167Z,8.50
2024-02-17T22:15:51.194Z,8.52
2024-02-17T22:18:18.450Z,8.44
2024-02-17T22:20:47.193Z,8.43
2024-02-17T22:23:14.106Z,8.42
2024-02-17T22:25:43.395Z,8.33
2024-02-17T22:28:11.580Z,8.44
2024-02-17T22:30:38.509Z,8.46
2024-02-17T22:33:06.498Z,8.41
2024-02-17T22:35:33.612Z,8.42
2024-02-17T22:38:04.266Z,8.48
2024-02-17T22:40:32.984Z,8.48
2024-02-17T22:43:03.260Z,8.48
2024-02-17T22:45:30.866Z,8.49
2024-02-17T22:47:58.250Z,8.48
2024-02-17T22:50:25.453Z,8.49
2024-02-17T22:52:53.227Z,8.41
2024-02-17T22:55:20.396Z,8.42
2024-02-17T22:57:47.640Z,8.36
2024-02-17T23:00:23.706Z,8.37
2024-02-17T23:02:51.887Z,8.44
2024-02-17T23:05:20.349Z,8.46
2024-02-17T23:07:48.297Z,8.57
2024-02-17T23:10:15.553Z,8.58
2024-02-17T23:12:42.998Z,8.54
2024-02-17T23:15:13.581Z,8.64
2024-02-17T23:17:41.019Z,8.62
2024-02-17T23:20:14.130Z,8.59
2024-02-17T23:22:42.062Z,8.66
2024-02-17T23:25:10.295Z,8.74
2024-02-17T23:27:41.146Z,8.70
2024-02-17T23:30:12.543Z,8.72
2024-02-17T23:32:41.197Z,8.77
2024-02-17T23:35:08.477Z,8.85
2024-02-17T23:37:35.781Z,8.88
2024-02-17T23:40:03.940Z,8.85
2024-02-17T23:42:31.498Z,8.91
2024-02-17T23:44:58.533Z,8.92
2024-02-17T23:47:25.734Z,8.94
2024-02-17T23:49:53.752Z,8.91
2024-02-17T23:52:20.966Z,8.92
2024-02-17T23:54:47.964Z,8.94
2024-02-17T23:57:15.165Z,8.96
2024-02-17T23:59:43.415Z,8.97
